Time;durP1;ratioP1;P1;durP2;ratioP2;P2;SDS_P1;SDS_P2;PMS_P1;PMS_P2;Temp;Humidity;BMP_temperature;BMP_pressure;BME280_temperature;BME280_humidity;BME280_pressure;Samples;Min_cycle;Max_cycle;Signal;HPM_P1;HPM_P2
2021/12/12 00:02:22;;;;;;;6.25;4.47;;;11.90;93.60;;;;;;5108258;28;20038;-73
2021/12/12 00:04:49;;;;;;;8.98;4.78;;;11.90;93.60;;;;;;5110532;28;20286;-73
2021/12/12 00:07:29;;;;;;;5.75;4.40;;;11.90;93.60;;;;;;5097293;28;20115;-73
2021/12/12 00:10:04;;;;;;;6.05;4.63;;;11.90;93.60;;;;;;5108277;28;20024;-73
2021/12/12 00:12:34;;;;;;;7.03;4.88;;;11.90;93.60;;;;;;5111774;28;20419;-72
2021/12/12 00:15:02;;;;;;;7.55;5.00;;;11.90;93.60;;;;;;5108219;28;20118;-73
2021/12/12 00:17:28;;;;;;;6.53;4.60;;;11.90;93.60;;;;;;5109976;28;20027;-73
2021/12/12 00:19:54;;;;;;;6.63;4.47;;;11.90;93.60;;;;;;5108545;28;20023;-73
2021/12/12 00:22:26;;;;;;;5.85;4.18;;;11.90;93.60;;;;;;5109957;28;20023;-73
2021/12/12 00:24:52;;;;;;;6.90;4.60;;;11.90;93.60;;;;;;5098430;28;20040;-73
2021/12/12 00:27:19;;;;;;;5.32;4.32;;;11.90;93.70;;;;;;5108765;28;20122;-73
2021/12/12 00:29:45;;;;;;;5.88;4.07;;;11.90;93.80;;;;;;5109657;28;20383;-73
2021/12/12 00:32:15;;;;;;;6.82;4.50;;;11.90;93.80;;;;;;5109870;28;20023;-73
2021/12/12 00:34:49;;;;;;;5.70;4.10;;;11.90;93.70;;;;;;5110181;28;20018;-73
2021/12/12 00:37:16;;;;;;;6.90;4.93;;;11.90;93.70;;;;;;5109944;28;20473;-73
2021/12/12 00:39:47;;;;;;;8.38;5.55;;;11.90;93.70;;;;;;5111809;28;20024;-73
2021/12/12 00:42:17;;;;;;;7.00;4.93;;;11.90;93.80;;;;;;5109953;28;20023;-73
2021/12/12 00:44:48;;;;;;;6.80;4.50;;;11.90;93.80;;;;;;5091617;28;20028;-72
2021/12/12 00:47:16;;;;;;;7.93;4.90;;;12.00;93.80;;;;;;5110295;28;20043;-73
2021/12/12 00:49:42;;;;;;;7.45;4.65;;;11.90;93.80;;;;;;5109893;28;20464;-73
2021/12/12 00:52:11;;;;;;;6.22;3.67;;;11.90;93.90;;;;;;5110295;28;20023;-73
2021/12/12 00:54:39;;;;;;;6.05;4.00;;;11.90;93.80;;;;;;5111768;28;20053;-73
2021/12/12 00:57:09;;;;;;;6.85;4.25;;;12.00;93.90;;;;;;5109873;28;20068;-73
2021/12/12 00:59:36;;;;;;;5.28;3.85;;;12.00;93.90;;;;;;5108371;28;20064;-73
2021/12/12 01:02:07;;;;;;;7.03;4.95;;;12.00;93.80;;;;;;5109919;28;20023;-73
2021/12/12 01:04:41;;;;;;;5.75;4.47;;;12.00;94.00;;;;;;5093212;27;20020;-73
2021/12/12 01:07:12;;;;;;;6.78;4.00;;;12.00;93.90;;;;;;5113940;28;20024;-73
2021/12/12 01:09:50;;;;;;;6.78;4.55;;;12.00;93.80;;;;;;5114068;28;20110;-72
2021/12/12 01:12:20;;;;;;;5.40;3.85;;;12.00;93.80;;;;;;5113500;28;20028;-73
2021/12/12 01:14:52;;;;;;;6.00;4.45;;;12.10;93.90;;;;;;5113449;28;20015;-73
2021/12/12 01:17:27;;;;;;;6.30;4.05;;;12.10;93.80;;;;;;5113735;28;20038;-73
2021/12/12 01:20:03;;;;;;;5.28;3.92;;;12.00;93.80;;;;;;5113026;28;20012;-72
2021/12/12 01:22:36;;;;;;;5.80;3.38;;;12.10;93.90;;;;;;5098240;28;20430;-72
2021/12/12 01:25:12;;;;;;;5.40;3.90;;;12.00;93.90;;;;;;5114671;28;20019;-73
2021/12/12 01:27:38;;;;;;;5.20;3.55;;;12.00;93.80;;;;;;5113636;28;20024;-72
2021/12/12 01:30:08;;;;;;;5.97;4.10;;;12.10;93.90;;;;;;5113483;28;20353;-73
2021/12/12 01:32:34;;;;;;;6.05;3.63;;;12.00;93.90;;;;;;5112094;28;20028;-73
2021/12/12 01:35:02;;;;;;;4.85;3.55;;;12.00;93.90;;;;;;5113354;28;20069;-73
2021/12/12 01:40:09;;;;;;;7.07;3.53;;;12.10;94.00;;;;;;5114549;28;20055;-73
2021/12/12 01:42:48;;;;;;;4.70;3.22;;;12.10;94.00;;;;;;5112980;28;20028;-73
2021/12/12 01:45:32;;;;;;;4.22;2.78;;;12.10;93.80;;;;;;5113059;28;20024;-73
2021/12/12 01:48:03;;;;;;;5.63;3.50;;;12.10;93.90;;;;;;5113082;28;20658;-73
2021/12/12 01:50:42;;;;;;;4.25;2.80;;;12.10;93.90;;;;;;5112834;28;20559;-73
2021/12/12 01:53:11;;;;;;;5.88;3.10;;;12.10;93.80;;;;;;5113091;28;20036;-72
2021/12/12 01:55:50;;;;;;;5.82;3.03;;;12.10;93.90;;;;;;5112675;28;20530;-72
2021/12/12 01:58:20;;;;;;;3.80;2.60;;;12.10;93.90;;;;;;5094447;28;20088;-72
2021/12/12 02:00:57;;;;;;;6.78;3.30;;;12.20;94.00;;;;;;5096859;28;20028;-73
2021/12/12 02:03:28;;;;;;;3.60;2.58;;;12.30;93.80;;;;;;5112110;28;20470;-73
2021/12/12 02:05:55;;;;;;;5.38;2.70;;;12.20;93.80;;;;;;5094856;28;20369;-73
2021/12/12 02:08:21;;;;;;;6.32;3.00;;;12.30;93.90;;;;;;5112714;28;20088;-73
2021/12/12 02:10:57;;;;;;;4.28;2.63;;;12.20;93.80;;;;;;5094122;28;20023;-73
2021/12/12 02:13:24;;;;;;;4.18;3.10;;;12.20;93.80;;;;;;5096779;28;20032;-73
2021/12/12 02:15:55;;;;;;;5.63;3.42;;;12.20;93.90;;;;;;5113359;28;20027;-72
2021/12/12 02:18:30;;;;;;;4.68;2.72;;;12.20;93.90;;;;;;5113198;28;20093;-73
2021/12/12 02:21:15;;;;;;;5.63;3.15;;;12.20;93.80;;;;;;5112528;28;20027;-73
2021/12/12 02:37:30;;;;;;;5.03;3.13;;;12.20;93.80;;;;;;5096908;28;20023;-73
2021/12/12 02:39:56;;;;;;;5.00;3.60;;;12.20;93.90;;;;;;5113279;28;20030;-72
2021/12/12 02:42:23;;;;;;;3.50;2.60;;;12.20;93.90;;;;;;5111375;28;20028;-73
2021/12/12 02:44:54;;;;;;;5.38;3.08;;;12.30;93.80;;;;;;5111989;28;20047;-73
2021/12/12 02:47:24;;;;;;;4.80;3.45;;;12.20;93.80;;;;;;5112139;28;20031;-73
2021/12/12 02:52:20;;;;;;;5.40;3.20;;;12.10;93.80;;;;;;5111962;28;20023;-73
2021/12/12 02:54:46;;;;;;;5.68;3.65;;;12.20;93.80;;;;;;5113313;28;20048;-73
2021/12/12 02:57:15;;;;;;;3.95;2.95;;;12.10;93.90;;;;;;5110268;28;20053;-73
2021/12/12 02:59:45;;;;;;;3.63;2.65;;;12.10;93.90;;;;;;5111766;28;20106;-73
2021/12/12 03:02:16;;;;;;;3.58;2.70;;;12.10;93.80;;;;;;5111712;28;20031;-73
2021/12/12 03:04:42;;;;;;;4.47;3.03;;;12.20;94.00;;;;;;5112365;28;20027;-73
2021/12/12 03:07:11;;;;;;;3.75;2.50;;;12.20;94.00;;;;;;5111735;28;20442;-73
2021/12/12 03:09:41;;;;;;;6.00;2.40;;;12.20;94.00;;;;;;5111005;28;20156;-73
2021/12/12 03:12:15;;;;;;;4.75;2.33;;;12.20;94.00;;;;;;5111380;28;20023;-73
2021/12/12 03:14:42;;;;;;;5.82;2.83;;;12.20;93.90;;;;;;5111414;28;20049;-73
2021/12/12 03:17:22;;;;;;;4.30;2.42;;;12.20;93.90;;;;;;5111341;28;20077;-73
2021/12/12 03:19:58;;;;;;;5.43;2.70;;;12.20;93.90;;;;;;5098560;28;20071;-73
2021/12/12 03:22:25;;;;;;;4.30;2.53;;;12.20;94.00;;;;;;5095227;28;20024;-72
2021/12/12 03:24:52;;;;;;;6.90;2.60;;;12.20;94.00;;;;;;5112951;28;20066;-73
2021/12/12 03:27:20;;;;;;;3.60;2.17;;;12.20;94.00;;;;;;5110535;28;20057;-73
2021/12/12 03:29:49;;;;;;;3.97;2.50;;;12.20;94.00;;;;;;5110933;28;20484;-73
2021/12/12 03:32:17;;;;;;;3.97;2.00;;;12.20;94.00;;;;;;5111186;28;20126;-73
2021/12/12 03:34:50;;;;;;;4.88;2.55;;;12.20;94.00;;;;;;5109913;28;20146;-73
2021/12/12 03:37:18;;;;;;;6.20;2.60;;;12.20;94.00;;;;;;5111303;28;20092;-73
2021/12/12 03:39:47;;;;;;;4.65;2.40;;;12.20;94.00;;;;;;5105357;28;20032;-74
2021/12/12 03:42:21;;;;;;;2.85;1.95;;;12.20;94.10;;;;;;5109491;28;20027;-73
2021/12/12 03:44:48;;;;;;;4.20;2.53;;;12.20;94.10;;;;;;5110933;28;20031;-73
2021/12/12 03:47:30;;;;;;;4.85;2.65;;;12.20;94.10;;;;;;5092339;28;20038;-73
2021/12/12 03:49:59;;;;;;;6.15;2.47;;;12.20;94.10;;;;;;5110771;28;20388;-73
2021/12/12 03:52:25;;;;;;;5.13;2.22;;;12.30;94.10;;;;;;5094917;28;20027;-73
2021/12/12 03:54:54;;;;;;;4.45;2.25;;;12.30;94.20;;;;;;5112636;28;20503;-73
2021/12/12 03:57:21;;;;;;;3.95;2.15;;;12.30;94.20;;;;;;5110901;28;20028;-73
2021/12/12 03:59:47;;;;;;;5.28;2.33;;;12.30;94.10;;;;;;5110274;28;20019;-73
2021/12/12 04:02:13;;;;;;;4.80;2.10;;;12.30;94.20;;;;;;5110785;28;20088;-73
2021/12/12 04:04:43;;;;;;;4.82;2.05;;;12.30;94.30;;;;;;5111232;27;20047;-73
2021/12/12 04:07:18;;;;;;;4.25;2.30;;;12.30;94.20;;;;;;5110324;28;20027;-73
2021/12/12 04:09:44;;;;;;;5.68;2.30;;;12.30;94.20;;;;;;5094060;28;20399;-72
2021/12/12 04:12:14;;;;;;;9.05;2.58;;;12.30;94.20;;;;;;5110451;28;20399;-73
2021/12/12 04:14:42;;;;;;;4.50;2.20;;;12.30;94.60;;;;;;5110397;28;20020;-73
2021/12/12 04:17:16;;;;;;;3.42;1.92;;;12.30;94.30;;;;;;5110121;28;20047;-73
2021/12/12 04:19:44;;;;;;;3.53;2.20;;;12.30;94.30;;;;;;5110531;28;20027;-73
2021/12/12 04:22:11;;;;;;;3.83;2.22;;;12.30;94.30;;;;;;5109990;28;20045;-73
2021/12/12 04:24:41;;;;;;;6.47;2.63;;;12.30;94.20;;;;;;5112412;28;20028;-73
2021/12/12 04:27:08;;;;;;;4.30;2.45;;;12.30;94.30;;;;;;5110262;28;20024;-73
2021/12/12 04:29:38;;;;;;;6.13;2.40;;;12.30;94.30;;;;;;5110300;28;20110;-73
2021/12/12 04:32:09;;;;;;;4.90;2.10;;;12.30;94.20;;;;;;5110213;28;20098;-73
2021/12/12 04:34:41;;;;;;;5.22;1.85;;;12.30;94.30;;;;;;5110017;28;20016;-73
2021/12/12 04:37:08;;;;;;;3.92;2.25;;;12.30;94.30;;;;;;5110348;28;20023;-73
2021/12/12 04:39:38;;;;;;;3.38;1.75;;;12.30;94.30;;;;;;5111461;28;20530;-73
2021/12/12 04:42:13;;;;;;;5.13;1.88;;;12.30;94.30;;;;;;5114201;28;20102;-73
2021/12/12 04:44:41;;;;;;;5.00;1.70;;;12.40;94.30;;;;;;5095844;28;20460;-73
2021/12/12 04:50:24;;;;;;;3.67;1.83;;;12.30;94.20;;;;;;5114005;28;20119;-73
2021/12/12 04:53:16;;;;;;;2.83;1.65;;;12.30;94.60;;;;;;5112889;28;20019;-73
2021/12/12 04:56:03;;;;;;;4.47;1.88;;;12.30;94.30;;;;;;5100687;28;20074;-73
2021/12/12 04:58:37;;;;;;;3.25;1.73;;;12.40;94.30;;;;;;5098704;28;20426;-73
2021/12/12 05:01:49;;;;;;;2.60;1.48;;;12.30;94.30;;;;;;5115126;28;20061;-73
2021/12/12 05:04:31;;;;;;;4.63;1.60;;;12.40;94.20;;;;;;5033810;28;20037;-73
2021/12/12 05:06:57;;;;;;;3.95;1.48;;;12.30;94.30;;;;;;5013183;28;20051;-73
2021/12/12 05:09:39;;;;;;;4.68;2.00;;;12.40;94.30;;;;;;5033610;28;20033;-73
2021/12/12 05:12:10;;;;;;;2.35;1.25;;;12.40;94.30;;;;;;5033792;28;20029;-73
2021/12/12 05:14:39;;;;;;;4.43;1.70;;;12.40;94.30;;;;;;5033742;28;20036;-73
2021/12/12 05:17:12;;;;;;;4.20;1.98;;;12.40;94.20;;;;;;5033826;28;20497;-73
2021/12/12 05:19:44;;;;;;;5.32;1.58;;;12.40;94.40;;;;;;5033331;28;20080;-73
2021/12/12 05:22:12;;;;;;;2.17;1.30;;;12.40;94.40;;;;;;5034291;28;20029;-74
2021/12/12 05:24:40;;;;;;;5.50;1.40;;;12.40;94.30;;;;;;5033283;28;20029;-74
2021/12/12 05:27:13;;;;;;;4.57;1.27;;;12.40;94.30;;;;;;5033666;28;20025;-74
2021/12/12 05:30:08;;;;;;;4.30;1.55;;;12.30;94.20;;;;;;5033616;28;20099;-73
2021/12/12 05:32:34;;;;;;;2.33;1.30;;;12.30;94.30;;;;;;5016172;28;20032;-74
2021/12/12 05:35:03;;;;;;;5.70;1.48;;;12.20;94.20;;;;;;5072820;28;20031;-74
2021/12/12 05:37:29;;;;;;;5.03;1.50;;;12.20;94.30;;;;;;5113631;28;20051;-73
2021/12/12 05:40:00;;;;;;;4.45;1.40;;;12.20;94.40;;;;;;5114920;28;20058;-74
2021/12/12 05:42:27;;;;;;;6.65;1.63;;;12.30;94.50;;;;;;5114202;28;20023;-73
2021/12/12 05:44:54;;;;;;;4.38;1.70;;;12.20;94.40;;;;;;5112673;28;20051;-73
2021/12/12 05:47:20;;;;;;;3.17;1.30;;;12.20;94.40;;;;;;5107710;28;20506;-73
2021/12/12 05:49:46;;;;;;;4.90;1.77;;;12.30;94.50;;;;;;5112296;28;20054;-73
2021/12/12 05:52:17;;;;;;;3.33;1.45;;;12.30;94.40;;;;;;5113148;28;20059;-73
2021/12/12 05:54:46;;;;;;;2.95;1.40;;;12.30;94.40;;;;;;5115202;28;20048;-73
2021/12/12 05:57:13;;;;;;;3.00;1.60;;;12.30;94.40;;;;;;5112632;28;20028;-73
2021/12/12 05:59:39;;;;;;;4.13;1.38;;;12.30;94.50;;;;;;5112371;28;20023;-73
2021/12/12 06:02:07;;;;;;;4.63;1.70;;;12.30;94.40;;;;;;5112928;28;20088;-73
2021/12/12 06:04:35;;;;;;;6.13;1.88;;;12.30;94.40;;;;;;5113215;27;20103;-73
2021/12/12 06:07:04;;;;;;;5.95;1.55;;;12.30;94.30;;;;;;5113940;28;20027;-73
2021/12/12 06:09:31;;;;;;;4.55;1.88;;;12.30;94.40;;;;;;5113602;28;20418;-73
2021/12/12 06:11:59;;;;;;;5.50;1.58;;;12.30;94.40;;;;;;5111338;28;20034;-73
2021/12/12 06:14:27;;;;;;;4.40;1.77;;;12.30;94.40;;;;;;5112590;28;20019;-73
2021/12/12 06:16:54;;;;;;;3.65;1.50;;;12.30;94.40;;;;;;5112640;28;20069;-73
2021/12/12 06:19:23;;;;;;;4.60;1.65;;;12.30;94.40;;;;;;5093916;28;20385;-73
2021/12/12 06:21:52;;;;;;;3.90;1.77;;;12.30;94.30;;;;;;5114163;28;20054;-73
2021/12/12 06:24:19;;;;;;;3.90;1.27;;;12.30;94.40;;;;;;5112341;28;20036;-73
2021/12/12 06:26:45;;;;;;;4.07;1.70;;;12.30;94.40;;;;;;5112381;28;20027;-73
2021/12/12 06:29:11;;;;;;;7.68;1.95;;;12.30;94.40;;;;;;5112373;28;20475;-73
2021/12/12 06:31:39;;;;;;;5.78;1.55;;;12.30;94.80;;;;;;5112149;28;20091;-73
2021/12/12 06:34:05;;;;;;;4.35;1.80;;;12.30;94.40;;;;;;5113119;28;20106;-73
2021/12/12 06:36:32;;;;;;;6.68;1.65;;;12.30;94.40;;;;;;5113642;28;20535;-73
2021/12/12 06:38:58;;;;;;;2.10;1.35;;;12.30;94.30;;;;;;5112201;28;20408;-73
2021/12/12 06:41:25;;;;;;;3.45;1.35;;;12.30;94.30;;;;;;5112118;28;20039;-73
2021/12/12 06:43:52;;;;;;;6.20;1.40;;;12.30;94.40;;;;;;5112232;28;20102;-73
2021/12/12 06:46:19;;;;;;;4.35;1.55;;;12.30;94.40;;;;;;5111765;28;20421;-73
2021/12/12 06:48:45;;;;;;;5.75;1.25;;;12.40;94.30;;;;;;5113758;28;20068;-73
2021/12/12 06:51:11;;;;;;;5.25;1.67;;;12.30;94.30;;;;;;5111993;28;20479;-73
2021/12/12 06:53:40;;;;;;;3.65;1.50;;;12.30;94.30;;;;;;5111564;28;20032;-73
2021/12/12 06:56:08;;;;;;;4.65;1.30;;;12.30;94.30;;;;;;5111164;28;20038;-72
2021/12/12 06:58:34;;;;;;;3.95;1.27;;;12.30;94.40;;;;;;5111931;28;20039;-72
2021/12/12 07:01:12;;;;;;;2.72;1.20;;;12.30;94.30;;;;;;5094021;28;20514;-73
2021/12/12 07:03:38;;;;;;;4.63;1.27;;;12.30;94.30;;;;;;5111414;28;20039;-73
2021/12/12 07:06:05;;;;;;;4.15;1.30;;;12.30;94.30;;;;;;5112276;27;20019;-72
2021/12/12 07:08:31;;;;;;;3.25;1.55;;;12.30;94.30;;;;;;5092590;28;20035;-72
2021/12/12 07:10:57;;;;;;;4.43;1.40;;;12.30;94.40;;;;;;5106506;28;20027;-72
2021/12/12 07:13:23;;;;;;;5.13;1.35;;;12.30;94.30;;;;;;5107679;28;20122;-73
2021/12/12 07:15:53;;;;;;;2.55;1.13;;;12.30;94.30;;;;;;5112506;28;20476;-73
2021/12/12 07:18:21;;;;;;;3.65;1.10;;;12.20;94.30;;;;;;5111522;28;20023;-72
2021/12/12 07:20:49;;;;;;;2.92;1.10;;;12.30;94.40;;;;;;5110941;28;20095;-73
2021/12/12 07:23:15;;;;;;;2.70;1.05;;;12.30;94.40;;;;;;5111184;28;20035;-72
2021/12/12 07:25:44;;;;;;;4.78;1.45;;;12.30;94.40;;;;;;5111357;28;20016;-72
2021/12/12 07:28:11;;;;;;;5.00;1.75;;;12.30;94.30;;;;;;5112047;28;20470;-73
2021/12/12 07:30:37;;;;;;;3.97;2.20;;;12.30;94.30;;;;;;5110805;28;20132;-73
2021/12/12 07:33:04;;;;;;;4.65;1.40;;;12.30;94.30;;;;;;5110988;28;20023;-72
2021/12/12 07:35:34;;;;;;;4.40;1.30;;;12.30;94.30;;;;;;5111201;28;20114;-72
2021/12/12 07:38:01;;;;;;;4.45;1.10;;;12.30;94.30;;;;;;5110333;28;20020;-73
2021/12/12 07:40:31;;;;;;;2.65;1.15;;;12.30;94.30;;;;;;5110744;28;20024;-73
2021/12/12 07:42:57;;;;;;;4.85;1.42;;;12.30;94.30;;;;;;5112436;28;20081;-73
2021/12/12 07:45:23;;;;;;;2.55;1.00;;;12.30;94.40;;;;;;5109456;28;20031;-73
2021/12/12 07:47:50;;;;;;;2.45;1.30;;;12.30;94.40;;;;;;5110577;28;20067;-62
2021/12/12 07:50:18;;;;;;;1.95;1.17;;;12.30;94.50;;;;;;5110718;27;20080;-61
2021/12/12 07:52:47;;;;;;;3.03;1.10;;;12.40;94.50;;;;;;5109787;27;20054;-62
2021/12/12 07:55:13;;;;;;;2.83;1.30;;;12.40;94.40;;;;;;5111286;28;20059;-62
2021/12/12 07:57:40;;;;;;;6.50;2.42;;;12.50;94.50;;;;;;5111189;28;20027;-62
2021/12/12 08:00:13;;;;;;;4.93;2.05;;;12.50;94.40;;;;;;5110102;28;20511;-62
2021/12/12 08:02:40;;;;;;;5.63;1.77;;;12.40;94.30;;;;;;5110788;28;20396;-62
2021/12/12 08:05:07;;;;;;;6.00;1.63;;;12.40;94.20;;;;;;5109253;28;20400;-61
2021/12/12 08:07:34;;;;;;;3.92;1.63;;;12.40;94.30;;;;;;5112404;27;20048;-61
2021/12/12 08:10:01;;;;;;;3.08;1.50;;;12.40;94.30;;;;;;5111921;28;20027;-63
2021/12/12 08:12:29;;;;;;;5.82;1.58;;;12.40;94.40;;;;;;5110784;28;20024;-61
2021/12/12 08:14:55;;;;;;;5.07;1.70;;;12.40;94.30;;;;;;5109300;28;20123;-66
2021/12/12 08:17:21;;;;;;;4.15;2.20;;;12.40;94.50;;;;;;5091189;28;20027;-65
2021/12/12 08:19:52;;;;;;;4.13;1.63;;;12.50;94.50;;;;;;5108954;28;20407;-60
2021/12/12 08:22:18;;;;;;;2.83;1.55;;;12.50;94.30;;;;;;5109367;28;20032;-61
2021/12/12 08:24:44;;;;;;;4.82;1.90;;;12.50;94.40;;;;;;5111077;28;20122;-60
2021/12/12 08:27:11;;;;;;;3.78;1.50;;;12.50;94.30;;;;;;5108956;28;20032;-61
2021/12/12 08:29:37;;;;;;;3.63;1.70;;;12.50;94.30;;;;;;5108491;28;20019;-60
2021/12/12 08:32:09;;;;;;;4.13;1.65;;;12.50;94.30;;;;;;5108264;28;20024;-61
2021/12/12 08:34:35;;;;;;;5.10;2.00;;;12.50;94.50;;;;;;5107263;28;20028;-61
2021/12/12 08:37:04;;;;;;;3.67;1.40;;;12.50;94.40;;;;;;5111351;28;20019;-60
2021/12/12 08:39:30;;;;;;;2.63;1.35;;;12.50;94.50;;;;;;5110198;28;20107;-60
2021/12/12 08:41:58;;;;;;;3.10;1.50;;;12.50;94.40;;;;;;5093184;28;20023;-60
2021/12/12 08:44:28;;;;;;;3.65;1.70;;;12.50;94.30;;;;;;5109684;28;20380;-62
2021/12/12 08:46:56;;;;;;;3.28;1.50;;;12.50;94.30;;;;;;5095514;28;20092;-60
2021/12/12 08:49:26;;;;;;;3.75;1.63;;;12.50;94.50;;;;;;5073470;28;20851;-60
2021/12/12 08:52:01;;;;;;;5.68;1.77;;;12.50;94.30;;;;;;5107480;28;20015;-60
2021/12/12 08:54:28;;;;;;;1.95;1.27;;;12.50;94.40;;;;;;5109972;28;20130;-61
2021/12/12 08:57:05;;;;;;;4.38;2.03;;;12.50;94.50;;;;;;5107819;28;20139;-61
2021/12/12 08:59:34;;;;;;;2.85;1.40;;;12.50;94.50;;;;;;5089803;28;20059;-61
2021/12/12 09:02:04;;;;;;;3.15;1.48;;;12.60;94.60;;;;;;5108292;28;20016;-61
2021/12/12 09:04:34;;;;;;;2.40;1.55;;;12.60;94.50;;;;;;5089770;28;20028;-61
2021/12/12 09:07:15;;;;;;;5.07;1.90;;;12.60;94.50;;;;;;5107014;28;20022;-61
2021/12/12 09:09:45;;;;;;;2.33;1.42;;;12.60;94.40;;;;;;5108843;28;20034;-61
2021/12/12 09:12:34;;;;;;;4.40;2.20;;;12.70;94.50;;;;;;5089311;28;20063;-61
2021/12/12 09:15:17;;;;;;;2.58;1.40;;;12.70;94.40;;;;;;5105928;28;20027;-61
2021/12/12 09:17:45;;;;;;;;;;;12.70;94.50;;;;;;5088402;28;20027;-61
2021/12/12 09:20:16;;;;;;;5.72;1.65;;;12.70;94.30;;;;;;5108520;28;19943;-61
2021/12/12 09:22:55;;;;;;;3.38;1.23;;;12.70;94.30;;;;;;5106021;28;20039;-61
2021/12/12 09:25:37;;;;;;;2.55;1.40;;;12.70;94.30;;;;;;5090724;28;20081;-61
2021/12/12 09:28:15;;;;;;;3.97;1.77;;;12.70;94.30;;;;;;5092525;28;20544;-61
2021/12/12 09:30:41;;;;;;;3.70;1.92;;;12.70;94.30;;;;;;5110763;28;20023;-62
2021/12/12 09:33:29;;;;;;;2.95;1.70;;;12.70;94.30;;;;;;5093180;28;20103;-61
2021/12/12 09:36:07;;;;;;;2.47;1.50;;;12.70;94.30;;;;;;5111297;27;20073;-61
2021/12/12 09:38:52;;;;;;;4.10;1.60;;;12.80;94.30;;;;;;5092699;28;20032;-61
2021/12/12 09:41:23;;;;;;;2.80;1.70;;;12.80;94.40;;;;;;5108875;27;20521;-61
2021/12/12 09:44:15;;;;;;;2.63;1.55;;;12.80;94.40;;;;;;5109836;27;20084;-61
2021/12/12 09:47:27;;;;;;;5.32;1.98;;;12.80;94.40;;;;;;5109300;27;20045;-61
2021/12/12 09:53:42;;;;;;;4.30;1.88;;;12.90;94.30;;;;;;5112193;27;20026;-61
2021/12/12 09:56:14;;;;;;;4.80;1.88;;;12.90;94.20;;;;;;5111614;27;20435;-61
2021/12/12 09:58:47;;;;;;;3.33;1.70;;;12.90;94.30;;;;;;5112004;27;20403;-61
2021/12/12 10:01:37;;;;;;;2.63;1.70;;;13.00;94.30;;;;;;5112220;27;20053;-61
2021/12/12 10:04:45;;;;;;;3.20;1.63;;;12.90;94.20;;;;;;5113270;27;20020;-61
2021/12/12 10:07:20;;;;;;;2.70;1.80;;;12.90;94.20;;;;;;5104354;27;20039;-61
2021/12/12 10:09:56;;;;;;;3.60;1.90;;;13.00;94.20;;;;;;5119666;27;20035;-62
2021/12/12 10:12:26;;;;;;;4.90;1.95;;;13.00;94.10;;;;;;5119568;27;20027;-61
2021/12/12 10:15:19;;;;;;;3.60;1.80;;;13.00;94.10;;;;;;5119751;27;20024;-60
2021/12/12 10:17:56;;;;;;;3.08;1.77;;;13.00;94.10;;;;;;5106634;27;20036;-61
2021/12/12 10:20:52;;;;;;;3.47;1.55;;;13.00;94.30;;;;;;5123848;27;20072;-61
2021/12/12 10:23:56;;;;;;;3.10;1.70;;;13.10;94.20;;;;;;5115349;27;20866;-61
2021/12/12 10:26:31;;;;;;;3.13;1.65;;;13.00;94.10;;;;;;5120647;27;20535;-61
2021/12/12 10:29:07;;;;;;;3.50;1.70;;;13.10;94.00;;;;;;5121504;27;20120;-61
2021/12/12 10:31:42;;;;;;;4.28;1.50;;;13.10;94.10;;;;;;5110557;27;20036;-61
2021/12/12 10:34:13;;;;;;;2.35;1.33;;;13.10;94.20;;;;;;5097124;27;20027;-60
2021/12/12 10:37:06;;;;;;;2.83;1.65;;;13.10;94.20;;;;;;5120225;27;20487;-60
2021/12/12 10:39:36;;;;;;;4.07;1.67;;;13.10;93.90;;;;;;5111796;27;20583;-61
2021/12/12 10:42:08;;;;;;;2.92;1.60;;;13.20;94.10;;;;;;5117521;27;20022;-60
2021/12/12 10:44:39;;;;;;;4.25;1.40;;;13.10;94.00;;;;;;5112507;27;20023;-60
2021/12/12 10:47:28;;;;;;;2.63;1.50;;;13.20;94.00;;;;;;5108669;27;20023;-61
2021/12/12 10:50:11;;;;;;;3.40;1.65;;;13.10;93.80;;;;;;5093555;27;20505;-60
2021/12/12 10:53:05;;;;;;;4.18;1.50;;;13.20;94.00;;;;;;5087386;28;20098;-60
2021/12/12 10:55:41;;;;;;;4.90;1.65;;;13.20;93.80;;;;;;5106002;27;20031;-60
2021/12/12 10:58:16;;;;;;;3.58;1.33;;;13.20;93.90;;;;;;5108270;27;20043;-60
2021/12/12 11:00:46;;;;;;;4.35;1.50;;;13.20;94.20;;;;;;5115563;27;20026;-60
2021/12/12 11:03:26;;;;;;;2.80;1.60;;;13.20;93.70;;;;;;5114371;27;20042;-60
2021/12/12 11:06:05;;;;;;;5.38;1.80;;;13.30;93.80;;;;;;5109953;27;20517;-60
2021/12/12 11:08:54;;;;;;;3.85;1.70;;;13.30;93.80;;;;;;5114084;27;20035;-61
2021/12/12 11:11:23;;;;;;;5.45;1.40;;;13.30;93.90;;;;;;5110162;27;20024;-62
2021/12/12 11:14:16;;;;;;;5.75;1.50;;;13.30;93.70;;;;;;5097095;27;20404;-62
2021/12/12 11:16:56;;;;;;;3.58;1.70;;;13.30;93.70;;;;;;5098550;28;20069;-62
2021/12/12 11:19:46;;;;;;;4.07;1.75;;;13.30;93.70;;;;;;5109547;27;20030;-61
2021/12/12 11:22:44;;;;;;;3.53;1.40;;;13.30;93.80;;;;;;5106241;27;20038;-61
2021/12/12 11:25:25;;;;;;;3.08;1.30;;;13.40;93.60;;;;;;5096729;28;20097;-62
2021/12/12 11:27:57;;;;;;;2.35;1.63;;;13.40;93.90;;;;;;5116315;27;20507;-61
2021/12/12 11:30:48;;;;;;;4.40;1.60;;;13.40;93.80;;;;;;5113619;27;20084;-62
2021/12/12 11:33:17;;;;;;;3.45;1.58;;;13.50;93.60;;;;;;5110057;27;20034;-62
2021/12/12 11:35:46;;;;;;;3.50;1.50;;;13.50;93.40;;;;;;5111341;27;20028;-62
2021/12/12 11:38:17;;;;;;;3.35;1.38;;;13.50;93.50;;;;;;5120681;27;20115;-61
2021/12/12 11:40:59;;;;;;;2.55;1.40;;;13.50;93.60;;;;;;5113018;27;20077;-62
2021/12/12 11:43:32;;;;;;;4.35;1.40;;;13.50;93.50;;;;;;5105759;27;20049;-62
2021/12/12 11:46:02;;;;;;;2.80;1.30;;;13.50;93.30;;;;;;5111167;27;20019;-62
2021/12/12 11:48:46;;;;;;;5.38;1.60;;;13.40;93.40;;;;;;5115802;27;20035;-62
2021/12/12 11:51:41;;;;;;;2.83;1.60;;;13.50;93.50;;;;;;5111972;27;20027;-61
2021/12/12 11:54:34;;;;;;;3.05;1.30;;;13.50;93.40;;;;;;5030365;28;20076;-61
2021/12/12 11:57:24;;;;;;;3.00;1.20;;;13.50;93.30;;;;;;5032204;28;20044;-61
2021/12/12 12:00:05;;;;;;;4.63;1.40;;;13.50;93.40;;;;;;5030758;28;20033;-61
2021/12/12 12:02:37;;;;;;;3.35;1.20;;;13.50;93.20;;;;;;5036504;28;20172;-61
2021/12/12 12:05:09;;;;;;;5.30;1.50;;;13.50;93.40;;;;;;5013710;28;20487;-62
2021/12/12 12:07:47;;;;;;;4.82;1.42;;;13.50;93.10;;;;;;5039160;28;20112;-61
2021/12/12 12:10:57;;;;;;;4.43;1.33;;;13.50;93.30;;;;;;5030759;28;20029;-62
2021/12/12 12:13:53;;;;;;;5.25;1.25;;;13.60;93.30;;;;;;5027239;28;20030;-62
2021/12/12 12:16:34;;;;;;;3.33;1.23;;;13.60;93.30;;;;;;5030392;28;20406;-61
2021/12/12 12:19:30;;;;;;;4.93;1.40;;;13.50;93.10;;;;;;5037142;28;20033;-62
2021/12/12 12:22:08;;;;;;;4.43;1.20;;;13.60;93.00;;;;;;5031593;28;20101;-62
2021/12/12 12:24:44;;;;;;;2.55;1.00;;;13.50;92.90;;;;;;5027824;28;20052;-61
2021/12/12 12:27:19;;;;;;;2.88;1.23;;;13.50;92.90;;;;;;5031229;28;20125;-62
2021/12/12 12:30:03;;;;;;;1.77;1.10;;;13.60;93.10;;;;;;5032630;28;20029;-61
2021/12/12 12:32:41;;;;;;;5.18;1.65;;;13.60;93.10;;;;;;5112892;27;20578;-62
2021/12/12 12:35:40;;;;;;;4.30;1.40;;;13.60;92.70;;;;;;5109325;28;20395;-62
2021/12/12 12:38:33;;;;;;;4.20;1.30;;;13.60;92.70;;;;;;5113343;27;20023;-62
2021/12/12 12:41:33;;;;;;;5.90;1.80;;;13.60;92.90;;;;;;5112965;28;20031;-62
2021/12/12 12:44:36;;;;;;;4.93;1.15;;;13.60;92.90;;;;;;5108577;28;20119;-62
2021/12/12 12:47:39;;;;;;;3.95;1.30;;;13.60;92.80;;;;;;5091149;28;20578;-64
2021/12/12 12:50:20;;;;;;;3.45;1.38;;;13.60;92.60;;;;;;5101872;28;20054;-64
2021/12/12 12:53:16;;;;;;;4.65;2.00;;;13.60;92.70;;;;;;5094406;28;20038;-62
2021/12/12 12:56:14;;;;;;;4.13;1.90;;;13.60;92.60;;;;;;5120850;28;20047;-61
2021/12/12 12:58:55;;;;;;;3.97;1.98;;;13.60;92.60;;;;;;5084212;28;20385;-62
2021/12/12 13:01:46;;;;;;;8.02;2.35;;;13.60;92.50;;;;;;5123608;27;20106;-61
2021/12/12 13:04:47;;;;;;;5.68;2.00;;;13.60;92.70;;;;;;5116507;27;20019;-62
2021/12/12 13:07:40;;;;;;;5.35;1.80;;;13.60;92.30;;;;;;5097813;28;20037;-62
2021/12/12 13:10:20;;;;;;;3.95;1.83;;;13.60;92.20;;;;;;5117255;27;20027;-61
2021/12/12 13:13:17;;;;;;;4.43;1.40;;;13.60;92.40;;;;;;5125389;27;20035;-62
2021/12/12 13:16:00;;;;;;;5.45;1.63;;;13.70;92.30;;;;;;5119029;27;20073;-62
2021/12/12 13:18:42;;;;;;;4.45;1.88;;;13.70;92.40;;;;;;5118331;27;20030;-62
2021/12/12 13:21:18;;;;;;;4.75;2.25;;;13.70;92.30;;;;;;5115356;27;20028;-62
2021/12/12 13:24:03;;;;;;;3.85;2.00;;;13.70;92.20;;;;;;5117100;27;20041;-63
2021/12/12 13:26:56;;;;;;;5.28;1.77;;;13.70;92.00;;;;;;5114425;27;20028;-62
2021/12/12 13:29:35;;;;;;;4.85;2.17;;;13.60;91.90;;;;;;5116781;27;20034;-62
2021/12/12 13:32:19;;;;;;;4.97;1.63;;;13.70;92.20;;;;;;5099796;27;20020;-63
2021/12/12 13:34:56;;;;;;;2.92;1.27;;;13.60;92.00;;;;;;5106674;27;20133;-62
2021/12/12 13:37:31;;;;;;;4.65;1.52;;;13.60;92.00;;;;;;5128698;27;20053;-62
2021/12/12 13:40:06;;;;;;;4.55;1.30;;;13.60;92.00;;;;;;5114903;27;20023;-62
2021/12/12 13:42:55;;;;;;;4.50;1.23;;;13.60;91.90;;;;;;5122501;27;20027;-62
2021/12/12 13:45:47;;;;;;;3.33;1.40;;;13.60;92.10;;;;;;5116850;27;20111;-62
2021/12/12 13:48:20;;;;;;;4.30;1.38;;;13.70;92.10;;;;;;5093470;27;20050;-62
2021/12/12 13:51:03;;;;;;;4.80;1.75;;;13.70;92.00;;;;;;5118275;27;20027;-62